Time;durP1;ratioP1;P1;durP2;ratioP2;P2;SDS_P1;SDS_P2;PMS_P1;PMS_P2;Temp;Humidity;BMP_temperature;BMP_pressure;BME280_temperature;BME280_humidity;BME280_pressure;Samples;Min_cycle;Max_cycle;Signal;HPM_P1;HPM_P2
2022/05/28 00:01:20;;;;;;;9.80;8.77;;;;;;;16.60;73.49;96266.06;5116497;28;20023;-61
2022/05/28 00:03:47;;;;;;;13.73;9.43;;;;;;;16.58;73.31;96267.97;5116616;28;20381;-60
2022/05/28 00:06:16;;;;;;;10.02;8.90;;;;;;;16.58;73.43;96260.88;5116590;28;20077;-61
2022/05/28 00:08:42;;;;;;;10.95;9.20;;;;;;;16.59;73.70;96254.69;5116634;28;20027;-64
2022/05/28 00:11:13;;;;;;;12.23;9.00;;;;;;;16.58;73.56;96252.13;5116636;28;20027;-61
2022/05/28 00:13:38;;;;;;;9.75;8.75;;;;;;;16.58;73.50;96250.31;5116465;28;20027;-60
2022/05/28 00:16:05;;;;;;;10.63;8.32;;;;;;;16.54;73.13;96248.84;5116376;28;20473;-63
2022/05/28 00:18:31;;;;;;;12.75;8.43;;;;;;;16.53;72.46;96247.16;5116411;27;20027;-61
2022/05/28 00:20:57;;;;;;;9.80;8.07;;;;;;;16.47;72.40;96245.78;5116280;27;20400;-63
2022/05/28 00:23:23;;;;;;;10.50;8.93;;;;;;;16.44;72.44;96242.50;5116307;28;20392;-61
2022/05/28 00:25:49;;;;;;;8.30;7.18;;;;;;;16.43;72.89;96239.00;5116068;28;20020;-62
2022/05/28 00:28:15;;;;;;;12.70;9.20;;;;;;;16.40;73.15;96236.56;5116038;28;20046;-65
2022/05/28 00:30:41;;;;;;;9.40;8.40;;;;;;;16.33;73.44;96232.63;5115969;28;20063;-64
2022/05/28 00:33:07;;;;;;;9.18;8.20;;;;;;;16.29;73.35;96222.28;5116202;28;20028;-62
2022/05/28 00:35:33;;;;;;;10.70;9.20;;;;;;;16.24;73.12;96224.41;5116035;27;20051;-64
2022/05/28 00:37:58;;;;;;;12.45;8.75;;;;;;;16.20;72.90;96227.34;5115865;28;20504;-62
2022/05/28 00:40:25;;;;;;;9.57;8.40;;;;;;;16.13;73.09;96224.22;5115812;28;20107;-63
2022/05/28 00:42:51;;;;;;;9.75;8.63;;;;;;;16.09;72.90;96223.59;5115805;28;20069;-61
2022/05/28 00:45:18;;;;;;;10.30;9.23;;;;;;;16.04;73.28;96223.91;5115822;28;20023;-63
2022/05/28 00:47:49;;;;;;;10.65;9.50;;;;;;;16.04;73.66;96223.06;5115801;28;20108;-62
2022/05/28 00:50:16;;;;;;;8.98;7.85;;;;;;;16.01;73.15;96224.09;5115028;28;20088;-63
2022/05/28 00:52:42;;;;;;;11.48;8.68;;;;;;;15.97;73.64;96221.75;5115792;28;20458;-62
2022/05/28 00:55:09;;;;;;;10.10;8.75;;;;;;;15.83;74.12;96217.38;5115588;28;20461;-63
2022/05/28 00:57:37;;;;;;;9.10;8.05;;;;;;;15.76;74.66;96215.13;5115619;28;20028;-65
2022/05/28 01:00:04;;;;;;;9.80;8.80;;;;;;;15.68;74.42;96217.38;5115339;28;20038;-61
2022/05/28 01:02:54;;;;;;;9.07;8.27;;;;;;;15.68;74.39;96225.28;5115345;28;20031;-62
2022/05/28 01:05:31;;;;;;;15.48;8.77;;;;;;;15.65;74.73;96221.06;5115468;28;20078;-64
2022/05/28 01:08:01;;;;;;;10.38;9.38;;;;;;;15.62;75.01;96221.25;5115540;27;20096;-62
2022/05/28 01:11:19;;;;;;;10.13;8.00;;;;;;;15.63;74.47;96216.84;5115442;28;20020;-62
2022/05/28 01:13:50;;;;;;;9.30;8.50;;;;;;;15.58;74.43;96219.78;5052496;28;20037;-62
2022/05/28 01:16:33;;;;;;;9.52;8.63;;;;;;;15.61;74.79;96216.09;5052552;28;20060;-62
2022/05/28 01:19:01;;;;;;;8.57;7.72;;;;;;;15.65;74.05;96220.22;5091723;28;20027;-63
2022/05/28 01:21:33;;;;;;;9.95;8.57;;;;;;;15.60;73.47;96217.03;5114891;28;20110;-65
2022/05/28 01:24:05;;;;;;;10.10;8.80;;;;;;;15.58;73.78;96216.28;5115095;28;20024;-65
2022/05/28 01:26:54;;;;;;;11.98;9.48;;;;;;;15.51;75.02;96221.94;5114898;28;20024;-63
2022/05/28 01:29:22;;;;;;;13.80;8.50;;;;;;;15.46;74.21;96213.50;5115004;28;20052;-64
2022/05/28 01:31:48;;;;;;;8.85;7.95;;;;;;;15.36;73.78;96213.22;5115013;27;20020;-64
2022/05/28 01:34:16;;;;;;;10.20;8.70;;;;;;;15.27;74.32;96211.16;5114919;28;20023;-63
2022/05/28 01:36:43;;;;;;;9.90;9.00;;;;;;;15.24;74.62;96214.84;5114777;28;20024;-64
2022/05/28 01:39:11;;;;;;;15.40;8.77;;;;;;;15.22;74.77;96211.44;5114792;28;20538;-62
2022/05/28 01:41:38;;;;;;;10.40;9.40;;;;;;;15.20;74.85;96212.50;5114547;28;20098;-62
2022/05/28 01:44:07;;;;;;;13.40;8.60;;;;;;;15.19;74.64;96209.00;5114649;28;20016;-63
2022/05/28 01:46:34;;;;;;;8.68;7.80;;;;;;;15.13;74.64;96215.50;5114623;28;20027;-64
2022/05/28 01:49:01;;;;;;;10.65;8.38;;;;;;;15.03;75.03;96209.09;5114245;28;20034;-64
2022/05/28 01:51:38;;;;;;;9.80;8.90;;;;;;;15.00;75.24;96214.56;5114698;28;20074;-62
2022/05/28 01:54:07;;;;;;;11.52;9.80;;;;;;;14.94;75.89;96212.28;5114543;28;20049;-64
2022/05/28 01:56:38;;;;;;;10.23;9.32;;;;;;;14.95;76.37;96224.50;5114438;28;20019;-61
2022/05/28 01:59:03;;;;;;;10.48;9.48;;;;;;;14.93;75.63;96221.97;5114610;28;20101;-62
2022/05/28 02:01:30;;;;;;;10.10;9.07;;;;;;;14.90;75.39;96223.00;5113395;28;20032;-64
2022/05/28 02:04:04;;;;;;;9.13;8.23;;;;;;;14.86;74.99;96218.88;5114284;28;20039;-63
2022/05/28 02:06:30;;;;;;;8.75;7.90;;;;;;;14.86;74.96;96221.50;5114343;28;20031;-62
2022/05/28 02:08:55;;;;;;;10.82;8.60;;;;;;;14.88;74.80;96213.53;5113195;28;20373;-64
2022/05/28 02:11:26;;;;;;;9.48;8.48;;;;;;;14.88;75.24;96214.38;5114170;28;20023;-61
2022/05/28 02:13:55;;;;;;;;;;;;;;;14.86;75.87;96208.34;5114673;28;20035;-61
2022/05/28 02:16:48;;;;;;;12.63;9.13;;;;;;;14.85;75.80;96209.28;5114142;28;19919;-63
2022/05/28 02:19:32;;;;;;;10.77;7.95;;;;;;;14.86;75.57;96215.38;5114034;28;20034;-62
2022/05/28 02:22:23;;;;;;;10.85;8.68;;;;;;;14.73;75.79;96217.88;5114026;28;20027;-63
2022/05/28 02:24:59;;;;;;;11.25;9.07;;;;;;;14.66;76.44;96210.34;5114038;28;20028;-61
2022/05/28 02:27:27;;;;;;;10.68;9.70;;;;;;;14.55;76.89;96210.16;5113810;28;20492;-62
2022/05/28 02:29:53;;;;;;;14.65;10.00;;;;;;;14.53;76.71;96212.03;5113844;28;20061;-64
2022/05/28 02:32:22;;;;;;;13.95;10.77;;;;;;;14.49;76.96;96200.84;5113878;28;20019;-63
2022/05/28 02:34:50;;;;;;;11.93;10.85;;;;;;;14.47;77.99;96205.34;5113868;28;20110;-65
2022/05/28 02:37:18;;;;;;;11.70;10.50;;;;;;;14.44;78.06;96210.78;5113749;28;20131;-61
2022/05/28 02:39:43;;;;;;;10.60;9.70;;;;;;;14.50;77.69;96209.56;5113592;28;20032;-64
2022/05/28 02:42:09;;;;;;;9.35;8.55;;;;;;;14.50;76.59;96202.53;5113988;28;20016;-62
2022/05/28 02:44:35;;;;;;;9.80;8.80;;;;;;;14.52;76.10;96208.56;5113659;28;20524;-62
2022/05/28 02:47:01;;;;;;;11.45;10.32;;;;;;;14.55;76.35;96210.16;5113759;28;20027;-64
2022/05/28 02:49:26;;;;;;;12.15;10.00;;;;;;;14.55;77.32;96206.66;5113251;28;20131;-62
2022/05/28 02:51:52;;;;;;;10.18;9.20;;;;;;;14.58;77.54;96207.34;5113575;28;20035;-63
2022/05/28 02:54:19;;;;;;;9.07;8.27;;;;;;;14.58;76.41;96215.25;5113571;28;20035;-63
2022/05/28 02:56:45;;;;;;;11.75;8.73;;;;;;;14.59;76.13;96223.97;5113580;28;20031;-63
2022/05/28 02:59:11;;;;;;;14.63;9.57;;;;;;;14.62;75.67;96223.78;5113548;28;20028;-62
2022/05/28 03:01:37;;;;;;;12.00;9.30;;;;;;;14.59;75.94;96216.94;5113355;28;20073;-62
2022/05/28 03:04:04;;;;;;;9.32;8.43;;;;;;;14.62;75.84;96219.38;5113443;28;20039;-64
2022/05/28 03:06:30;;;;;;;10.10;9.10;;;;;;;14.70;75.81;96221.56;5113527;28;20033;-63
2022/05/28 03:08:56;;;;;;;10.23;9.30;;;;;;;14.73;76.55;96218.75;5113593;28;20015;-61
2022/05/28 03:11:21;;;;;;;9.50;8.60;;;;;;;14.78;76.55;96216.69;5113441;28;20020;-61
2022/05/28 03:13:47;;;;;;;9.70;8.90;;;;;;;14.80;76.28;96213.97;5116289;28;20020;-61
2022/05/28 03:16:13;;;;;;;10.32;8.40;;;;;;;14.84;75.21;96219.91;5117541;28;20473;-62
2022/05/28 03:18:39;;;;;;;11.50;8.18;;;;;;;14.91;74.99;96223.88;5117486;28;20088;-63
2022/05/28 03:21:06;;;;;;;8.63;7.82;;;;;;;14.90;75.22;96215.13;5117328;28;20481;-65
2022/05/28 03:23:32;;;;;;;9.63;8.73;;;;;;;14.94;75.17;96215.78;5117508;28;20496;-63
2022/05/28 03:25:57;;;;;;;10.00;9.10;;;;;;;14.99;75.50;96216.34;5117308;28;20032;-64
2022/05/28 03:28:23;;;;;;;10.05;8.98;;;;;;;15.09;75.52;96218.41;5117221;28;20059;-61
2022/05/28 03:30:48;;;;;;;8.68;7.85;;;;;;;15.24;75.69;96225.38;5117334;28;20020;-62
2022/05/28 03:33:14;;;;;;;9.90;8.00;;;;;;;15.37;75.40;96225.47;5117161;28;20022;-64
2022/05/28 03:35:40;;;;;;;8.32;7.60;;;;;;;15.57;74.84;96230.41;5117269;28;20016;-62
2022/05/28 03:38:07;;;;;;;9.02;7.82;;;;;;;15.74;74.86;96234.63;5117073;28;20027;-62
2022/05/28 03:40:33;;;;;;;8.10;7.03;;;;;;;15.95;74.30;96234.19;5116947;28;20022;-63
2022/05/28 03:42:59;;;;;;;9.70;6.93;;;;;;;16.11;73.84;96240.19;5116992;28;20020;-61
2022/05/28 03:45:26;;;;;;;8.27;7.25;;;;;;;16.27;73.88;96244.44;5117004;28;20031;-62
2022/05/28 03:47:52;;;;;;;9.75;6.80;;;;;;;16.41;72.74;96241.72;5117024;28;20019;-63
2022/05/28 03:50:18;;;;;;;7.38;6.32;;;;;;;16.54;71.96;96243.56;5116590;28;20123;-62
2022/05/28 03:52:43;;;;;;;7.32;6.63;;;;;;;16.58;71.98;96250.31;5116820;28;20026;-63
2022/05/28 03:55:09;;;;;;;7.97;7.18;;;;;;;16.68;72.08;96245.28;5116845;28;20477;-62
2022/05/28 03:57:36;;;;;;;7.25;6.65;;;;;;;16.77;72.38;96247.28;5115511;28;20038;-64
2022/05/28 04:00:04;;;;;;;7.88;7.15;;;;;;;16.95;72.54;96246.16;5116600;28;20488;-64
2022/05/28 04:02:29;;;;;;;10.60;7.22;;;;;;;17.12;72.38;96255.56;5116583;28;20027;-64
2022/05/28 04:04:55;;;;;;;6.85;6.20;;;;;;;17.29;71.46;96255.25;5116550;28;20076;-63
2022/05/28 04:07:21;;;;;;;6.88;6.20;;;;;;;17.41;71.39;96248.28;5116613;28;20715;-62
2022/05/28 04:09:47;;;;;;;6.50;5.90;;;;;;;17.51;70.78;96240.53;5116598;28;20024;-61
2022/05/28 04:12:14;;;;;;;6.82;6.13;;;;;;;17.65;70.39;96241.34;5116487;28;20094;-62
2022/05/28 04:14:39;;;;;;;6.60;5.88;;;;;;;17.75;70.46;96242.38;5116326;28;20015;-63
2022/05/28 04:17:05;;;;;;;6.57;5.97;;;;;;;17.92;69.89;96250.88;5116397;28;20015;-61
2022/05/28 04:19:32;;;;;;;6.55;5.82;;;;;;;18.08;69.74;96249.75;5116396;28;20495;-63
2022/05/28 04:21:57;;;;;;;6.95;5.53;;;;;;;18.28;69.71;96246.53;5116264;28;20066;-63
2022/05/28 04:24:24;;;;;;;6.53;5.93;;;;;;;18.46;68.80;96250.56;5115418;28;20457;-64
2022/05/28 04:26:49;;;;;;;8.02;5.57;;;;;;;18.64;67.81;96254.50;5116194;28;20028;-63
2022/05/28 04:29:15;;;;;;;6.82;6.22;;;;;;;18.75;68.05;96247.53;5116022;28;20024;-63
2022/05/28 04:31:41;;;;;;;6.85;6.20;;;;;;;18.79;67.71;96247.16;5116160;28;20026;-62
2022/05/28 04:34:07;;;;;;;7.15;6.47;;;;;;;18.89;68.13;96254.41;5116015;28;20103;-62
2022/05/28 04:36:33;;;;;;;7.30;6.05;;;;;;;19.02;68.31;96252.50;5116055;28;20039;-63
2022/05/28 04:38:58;;;;;;;6.63;5.80;;;;;;;19.11;68.40;96248.34;5115856;28;20083;-61
2022/05/28 04:41:24;;;;;;;6.20;5.60;;;;;;;19.22;68.21;96257.25;5115751;28;20043;-61
2022/05/28 04:43:51;;;;;;;6.10;5.50;;;;;;;19.38;68.44;96262.22;5115815;28;20343;-63
2022/05/28 04:46:17;;;;;;;6.25;5.65;;;;;;;19.56;67.67;96265.22;5115896;28;20107;-61
2022/05/28 04:48:43;;;;;;;6.50;5.22;;;;;;;19.74;66.83;96268.22;5115776;28;20567;-61
2022/05/28 04:51:08;;;;;;;6.10;5.50;;;;;;;19.88;66.64;96263.63;5115459;28;20071;-62
2022/05/28 04:53:34;;;;;;;6.13;5.40;;;;;;;19.94;66.43;96263.13;5115762;27;20461;-64
2022/05/28 04:56:00;;;;;;;5.63;5.10;;;;;;;19.99;66.36;96247.69;5115527;28;20015;-64
2022/05/28 04:58:29;;;;;;;10.50;5.32;;;;;;;20.04;66.40;96244.66;5115531;28;20549;-62
2022/05/28 05:00:55;;;;;;;6.40;5.47;;;;;;;20.12;66.25;96250.22;5115439;28;20081;-63
2022/05/28 05:03:21;;;;;;;5.90;5.40;;;;;;;20.14;65.66;96250.09;5115426;28;20031;-64
2022/05/28 05:05:47;;;;;;;6.47;5.88;;;;;;;20.18;65.56;96255.03;5115309;28;20502;-64
2022/05/28 05:08:14;;;;;;;5.80;5.32;;;;;;;20.18;65.81;96259.47;5115399;27;20107;-62
2022/05/28 05:10:39;;;;;;;7.75;6.22;;;;;;;20.25;66.51;96254.50;5115391;28;20024;-61
2022/05/28 05:13:06;;;;;;;5.28;4.78;;;;;;;20.39;65.60;96248.91;5115251;28;20042;-62
2022/05/28 05:15:32;;;;;;;6.72;5.55;;;;;;;20.52;66.88;96247.88;5115217;28;20106;-63
2022/05/28 05:17:58;;;;;;;6.15;5.55;;;;;;;20.59;66.09;96254.38;5115158;28;20023;-61
2022/05/28 05:20:24;;;;;;;5.70;5.00;;;;;;;20.85;65.70;96248.69;5115177;28;20104;-60
2022/05/28 05:22:53;;;;;;;7.07;5.50;;;;;;;21.28;66.19;96246.03;5115114;28;20389;-61
2022/05/28 05:25:19;;;;;;;15.43;4.90;;;;;;;21.86;63.47;96238.41;5115068;28;20095;-63
2022/05/28 05:27:45;;;;;;;9.23;4.60;;;;;;;22.51;63.33;96243.22;5114978;28;20035;-63
2022/05/28 05:30:11;;;;;;;4.25;3.85;;;;;;;23.20;59.96;96250.28;5114847;28;20057;-62
2022/05/28 05:32:37;;;;;;;5.20;4.60;;;;;;;23.79;57.74;96250.09;5115023;27;20023;-63
2022/05/28 05:35:03;;;;;;;7.15;4.47;;;;;;;24.33;57.09;96244.03;5113765;28;20081;-61
2022/05/28 05:37:28;;;;;;;5.65;4.80;;;;;;;24.82;54.79;96234.75;5114800;28;20031;-61
2022/05/28 05:39:54;;;;;;;7.07;4.30;;;;;;;25.27;53.20;96240.06;5114647;28;20027;-61
2022/05/28 05:42:20;;;;;;;5.55;3.67;;;;;;;25.79;51.04;96245.53;5114632;28;20028;-62
2022/05/28 05:44:46;;;;;;;5.10;4.05;;;;;;;26.16;50.79;96247.00;5114680;28;20032;-62
2022/05/28 05:47:12;;;;;;;7.97;4.00;;;;;;;26.39;49.31;96245.56;5114627;28;20070;-60
2022/05/28 05:49:38;;;;;;;4.82;3.67;;;;;;;26.80;50.05;96250.09;5114417;28;20461;-60
2022/05/28 05:52:04;;;;;;;5.53;4.05;;;;;;;27.04;48.21;96245.75;5114736;28;20120;-60
2022/05/28 05:54:30;;;;;;;4.22;3.72;;;;;;;27.37;47.65;96245.69;5114394;28;20030;-62
2022/05/28 05:56:56;;;;;;;5.47;3.60;;;;;;;27.70;46.81;96253.66;5114470;28;20469;-62
2022/05/28 05:59:22;;;;;;;9.88;4.18;;;;;;;27.98;46.11;96265.78;5114482;28;20020;-60
2022/05/28 06:01:48;;;;;;;5.10;3.63;;;;;;;28.21;43.64;96265.00;5114388;28;20084;-61
2022/05/28 06:04:14;;;;;;;6.35;4.00;;;;;;;28.50;43.48;96255.41;5114234;28;20485;-61
2022/05/28 06:06:40;;;;;;;5.00;3.10;;;;;;;28.82;42.14;96253.50;5114219;28;20024;-62
2022/05/28 06:09:07;;;;;;;5.43;3.45;;;;;;;29.08;42.94;96241.53;5114219;28;20019;-60
2022/05/28 06:11:33;;;;;;;4.20;3.50;;;;;;;29.34;42.64;96247.50;5114122;28;20030;-62
2022/05/28 06:13:59;;;;;;;5.70;3.30;;;;;;;29.57;41.99;96247.44;5114149;28;20051;-59
2022/05/28 06:16:25;;;;;;;8.52;3.53;;;;;;;29.79;41.53;96252.09;5113973;28;20073;-61
2022/05/28 06:18:51;;;;;;;9.20;3.55;;;;;;;30.02;40.50;96251.94;5113931;28;20023;-62
2022/05/28 06:21:17;;;;;;;4.38;3.88;;;;;;;30.19;40.34;96257.97;5113886;27;20071;-61
2022/05/28 06:23:43;;;;;;;7.40;3.75;;;;;;;30.25;39.97;96257.22;5114100;28;20019;-60
2022/05/28 06:26:10;;;;;;;4.18;3.58;;;;;;;30.29;41.66;96262.22;5113883;28;20027;-61
2022/05/28 06:28:37;;;;;;;4.72;3.58;;;;;;;30.12;40.94;96257.03;5113859;28;20350;-62
2022/05/28 06:31:05;;;;;;;3.83;3.50;;;;;;;30.07;40.95;96265.69;5113878;28;20031;-61
2022/05/28 06:33:31;;;;;;;7.13;4.20;;;;;;;30.04;43.41;96265.25;5113789;28;20023;-61
2022/05/28 06:35:59;;;;;;;7.03;3.83;;;;;;;30.15;40.60;96262.03;5113791;28;20020;-62
2022/05/28 06:38:25;;;;;;;8.05;4.30;;;;;;;30.36;40.89;96265.81;5113676;28;20031;-61
2022/05/28 06:40:51;;;;;;;4.43;3.40;;;;;;;30.45;40.95;96259.28;5113547;28;20040;-61
2022/05/28 06:43:17;;;;;;;8.13;3.97;;;;;;;30.76;40.36;96260.03;5113586;28;20015;-61
2022/05/28 06:45:43;;;;;;;12.35;3.72;;;;;;;30.93;36.65;96257.91;5113714;28;20110;-61
2022/05/28 06:48:09;;;;;;;12.02;3.17;;;;;;;30.81;34.13;96252.19;5113180;28;20099;-62
2022/05/28 06:53:20;;;;;;;10.18;3.45;;;;;;;31.30;33.22;96244.25;5113574;28;20046;-62
2022/05/28 06:55:46;;;;;;;8.38;3.38;;;;;;;31.41;32.47;96240.19;5113577;28;20106;-62
2022/05/28 06:58:12;;;;;;;8.25;3.15;;;;;;;31.58;34.46;96243.41;5113560;28;20027;-60
2022/05/28 07:00:38;;;;;;;7.90;3.22;;;;;;;31.07;32.22;96239.09;5113354;28;20477;-60
2022/05/28 07:03:04;;;;;;;10.20;3.60;;;;;;;30.54;35.09;96230.31;5113468;28;20040;-61
2022/05/28 07:05:31;;;;;;;9.98;3.55;;;;;;;30.43;35.33;96226.28;5113324;28;20034;-62
2022/05/28 07:07:57;;;;;;;9.30;3.60;;;;;;;30.12;35.65;96219.28;5113339;28;20027;-63
2022/05/28 07:10:23;;;;;;;12.63;3.65;;;;;;;30.33;37.10;96207.72;5113395;28;20035;-62
2022/05/28 07:12:49;;;;;;;9.80;3.50;;;;;;;30.65;36.53;96212.78;5113410;28;20019;-60
2022/05/28 07:15:15;;;;;;;9.15;3.35;;;;;;;30.61;34.77;96196.16;5113459;28;20073;-61
2022/05/28 07:17:41;;;;;;;11.55;3.60;;;;;;;30.38;36.52;96196.34;5113248;28;20027;-63
2022/05/28 07:20:09;;;;;;;10.23;3.58;;;;;;;30.36;37.70;96193.00;5113205;28;20030;-62
2022/05/28 07:22:35;;;;;;;11.07;2.90;;;;;;;30.31;36.81;96190.06;5113178;28;20073;-62
2022/05/28 07:25:02;;;;;;;9.25;3.35;;;;;;;30.05;35.84;96200.34;5113382;28;20019;-62
2022/05/28 07:27:28;;;;;;;8.27;3.63;;;;;;;29.77;36.25;96209.16;5113315;28;20015;-60
2022/05/28 07:29:55;;;;;;;14.45;3.50;;;;;;;29.75;37.25;96220.13;5113236;28;20027;-60
2022/05/28 07:32:24;;;;;;;11.35;3.35;;;;;;;29.83;36.76;96235.31;5113254;28;20024;-60
2022/05/28 07:34:51;;;;;;;10.37;4.00;;;;;;;30.11;34.94;96226.56;5113262;28;20020;-63
2022/05/28 07:37:17;;;;;;;8.88;3.25;;;;;;;30.04;36.80;96225.66;5113128;28;20449;-60
2022/05/28 07:39:43;;;;;;;5.60;3.20;;;;;;;30.01;36.31;96226.84;5113306;28;20365;-63
2022/05/28 07:42:09;;;;;;;13.23;3.45;;;;;;;30.15;38.14;96227.00;5112938;28;20055;-62
2022/05/28 07:44:35;;;;;;;9.88;4.18;;;;;;;29.83;36.77;96226.44;5113169;28;20080;-63
2022/05/28 07:47:08;;;;;;;9.98;3.28;;;;;;;29.46;37.23;96224.47;5112930;28;20055;-61
2022/05/28 07:49:38;;;;;;;13.18;3.88;;;;;;;29.28;37.61;96221.31;5112975;28;20131;-60
2022/05/28 07:52:04;;;;;;;;;;;;;;;29.04;39.67;96232.16;5113534;28;20106;-62
2022/05/28 07:54:30;;;;;;;8.80;3.97;;;;;;;28.38;41.14;96233.50;5112942;28;20002;-62
2022/05/28 07:56:56;;;;;;;13.18;4.22;;;;;;;27.90;44.59;96233.59;5112958;28;20016;-63
2022/05/28 07:59:23;;;;;;;17.77;4.75;;;;;;;27.45;47.87;96223.34;5113370;28;20106;-63
2022/05/28 08:01:49;;;;;;;12.60;4.05;;;;;;;27.20;48.17;96213.50;5116668;28;20020;-62
2022/05/28 08:04:16;;;;;;;13.75;4.32;;;;;;;26.96;49.53;96217.88;5116676;28;20538;-64
2022/05/28 08:06:42;;;;;;;12.48;4.78;;;;;;;26.81;51.78;96217.72;5116578;28;20068;-61
2022/05/28 08:09:10;;;;;;;15.10;4.70;;;;;;;26.66;52.78;96216.75;5116528;28;20099;-63
2022/05/28 08:11:36;;;;;;;17.40;11.60;;;;;;;26.24;52.59;96219.34;5116494;28;20064;-61
2022/05/28 08:14:02;;;;;;;26.27;12.32;;;;;;;25.70;54.81;96212.50;5116678;28;20019;-63
2022/05/28 08:16:28;;;;;;;15.70;9.05;;;;;;;25.26;56.58;96202.78;5116377;28;20045;-64
2022/05/28 08:18:54;;;;;;;10.40;7.35;;;;;;;25.22;59.73;96192.38;5116412;27;20024;-60
2022/05/28 08:24:05;;;;;;;9.93;5.05;;;;;;;25.35;58.26;96183.09;5116374;28;20485;-63
2022/05/28 08:26:31;;;;;;;10.93;5.13;;;;;;;25.42;57.64;96168.06;5116209;28;20032;-63
2022/05/28 08:28:57;;;;;;;15.75;5.78;;;;;;;25.23;58.21;96142.41;5116206;28;20027;-61
2022/05/28 08:31:27;;;;;;;17.25;5.65;;;;;;;25.08;61.64;96126.94;5116047;28;20102;-61
2022/05/28 08:33:53;;;;;;;13.85;5.18;;;;;;;24.96;59.21;96110.31;5116145;28;20034;-63
2022/05/28 08:36:20;;;;;;;10.82;4.75;;;;;;;24.54;55.53;96095.88;5116256;28;20020;-60
2022/05/28 08:38:46;;;;;;;11.43;4.88;;;;;;;24.41;55.26;96098.13;5116115;28;20072;-61
2022/05/28 08:41:14;;;;;;;9.30;4.47;;;;;;;24.42;58.33;96114.00;5115940;28;20028;-64
2022/05/28 08:44:13;;;;;;;11.68;5.35;;;;;;;24.52;57.37;96132.59;5115959;28;20465;-63
2022/05/28 08:46:43;;;;;;;9.10;4.88;;;;;;;24.81;58.89;96135.97;5115789;28;20064;-62
2022/05/28 08:49:12;;;;;;;13.70;5.07;;;;;;;25.20;57.04;96137.38;5115646;28;20072;-62
2022/05/28 08:51:53;;;;;;;14.02;5.57;;;;;;;25.38;55.58;96147.97;5116059;28;20031;-64
2022/05/28 08:54:34;;;;;;;17.17;5.70;;;;;;;25.54;55.43;96157.91;5115817;28;20034;-60
2022/05/28 08:57:02;;;;;;;;;;;;;;;25.65;57.93;96170.19;5116104;28;20062;-62
2022/05/28 08:59:39;;;;;;;8.60;6.00;;;;;;;25.76;57.29;96165.53;5115762;28;20011;-63
2022/05/28 09:02:17;;;;;;;9.52;6.13;;;;;;;25.73;57.01;96169.34;5115622;28;20489;-62
2022/05/28 09:04:45;;;;;;;12.52;6.18;;;;;;;25.54;56.24;96168.59;5115489;28;20080;-60
2022/05/28 09:07:14;;;;;;;11.80;7.18;;;;;;;25.57;57.45;96162.09;5115342;28;20454;-60
2022/05/28 09:09:44;;;;;;;9.13;6.60;;;;;;;25.60;58.06;96156.44;5115287;28;20602;-62
2022/05/28 09:12:35;;;;;;;8.05;6.28;;;;;;;25.59;57.17;96152.06;5115075;28;20449;-62
2022/05/28 09:15:05;;;;;;;9.02;6.78;;;;;;;25.58;57.44;96150.38;5114849;28;20035;-62
2022/05/28 09:17:35;;;;;;;9.27;7.25;;;;;;;25.78;59.09;96147.44;5115428;28;20023;-62
2022/05/28 09:20:07;;;;;;;8.77;6.67;;;;;;;26.28;58.65;96134.13;5115155;28;20081;-63
2022/05/28 09:22:33;;;;;;;12.65;6.32;;;;;;;26.84;55.82;96139.59;5115159;28;20659;-62
2022/05/28 09:24:59;;;;;;;9.60;6.38;;;;;;;27.31;51.18;96136.31;5115076;28;20020;-63
2022/05/28 09:27:39;;;;;;;10.85;6.28;;;;;;;27.57;51.64;96129.81;5115341;28;20080;-63
2022/05/28 09:30:11;;;;;;;11.90;6.60;;;;;;;27.74;51.13;96136.78;5115195;28;20055;-64
2022/05/28 09:32:43;;;;;;;8.02;6.15;;;;;;;27.90;52.23;96128.81;5114927;28;20088;-64
2022/05/28 09:35:31;;;;;;;10.98;6.57;;;;;;;28.16;52.40;96119.53;5114857;28;20030;-61
2022/05/28 09:38:05;;;;;;;13.90;6.13;;;;;;;28.35;49.07;96120.97;5115185;28;20102;-61
2022/05/28 09:40:37;;;;;;;10.13;6.85;;;;;;;28.45;51.10;96120.69;5114785;28;20063;-61
2022/05/28 09:43:43;;;;;;;19.10;6.97;;;;;;;28.67;49.14;96121.66;5114848;28;20400;-63
2022/05/28 09:46:17;;;;;;;12.13;6.60;;;;;;;28.81;50.74;96116.47;5114694;28;20035;-63
2022/05/28 09:48:46;;;;;;;9.65;6.10;;;;;;;28.81;49.96;96121.84;5114654;28;20034;-63
2022/05/28 09:51:38;;;;;;;10.25;5.57;;;;;;;29.04;47.35;96126.38;5114390;28;20039;-63
2022/05/28 09:54:23;;;;;;;14.43;5.82;;;;;;;29.28;47.41;96130.59;5111452;28;20123;-63
2022/05/28 09:56:58;;;;;;;11.23;5.28;;;;;;;29.45;45.08;96133.09;5114448;28;20042;-62
2022/05/28 09:59:29;;;;;;;10.52;5.13;;;;;;;29.56;44.59;96127.28;5114540;27;20385;-63
2022/05/28 10:02:07;;;;;;;13.07;5.28;;;;;;;29.64;42.21;96129.84;5114273;28;20397;-61
2022/05/28 10:04:53;;;;;;;10.05;5.18;;;;;;;29.57;43.78;96126.25;5114509;28;20067;-60
2022/05/28 10:07:34;;;;;;;15.75;5.35;;;;;;;29.93;41.53;96129.09;5113621;28;20074;-62
2022/05/28 10:10:10;;;;;;;12.68;5.43;;;;;;;30.25;43.65;96126.97;5114320;28;20469;-62
2022/05/28 10:12:36;;;;;;;9.15;4.50;;;;;;;30.48;41.13;96118.66;5114317;28;20027;-62
2022/05/28 10:15:09;;;;;;;15.95;5.95;;;;;;;30.44;41.08;96119.22;5114180;28;20019;-62
2022/05/28 10:17:36;;;;;;;9.57;5.18;;;;;;;30.56;40.13;96122.22;5114201;28;20035;-61
2022/05/28 10:20:07;;;;;;;11.55;4.97;;;;;;;30.49;43.40;96120.31;5113928;28;20028;-60
2022/05/28 10:22:38;;;;;;;10.43;4.47;;;;;;;30.59;42.40;96119.97;5113236;28;20438;-63
2022/05/28 10:25:13;;;;;;;10.80;5.35;;;;;;;30.67;40.36;96116.28;5114044;28;20522;-60
2022/05/28 10:27:49;;;;;;;13.48;5.05;;;;;;;30.62;41.18;96116.06;5114085;27;20088;-62
2022/05/28 10:30:44;;;;;;;26.38;9.32;;;;;;;30.49;43.10;96114.91;5104428;28;20039;-60
2022/05/28 10:33:18;;;;;;;37.47;16.05;;;;;;;30.24;42.54;96114.50;5105779;27;20035;-61
2022/05/28 10:35:45;;;;;;;28.95;12.23;;;;;;;30.20;42.12;96110.53;5125084;27;20039;-60
2022/05/28 10:38:11;;;;;;;25.60;12.88;;;;;;;30.08;39.66;96107.47;5113750;28;20031;-60
2022/05/28 10:40:49;;;;;;;11.13;5.05;;;;;;;30.13;39.06;96100.47;5120961;27;20036;-60
2022/05/28 10:43:24;;;;;;;8.10;4.40;;;;;;;30.02;40.08;96095.59;5113647;28;20032;-60
2022/05/28 10:45:58;;;;;;;10.48;5.10;;;;;;;29.88;42.21;96100.88;5113569;28;20043;-64
2022/05/28 10:48:27;;;;;;;8.90;4.65;;;;;;;29.80;42.91;96109.09;5116064;27;20102;-61
2022/05/28 10:51:01;;;;;;;8.05;4.78;;;;;;;29.62;41.01;96112.19;5134159;27;20072;-62
2022/05/28 10:53:38;;;;;;;7.80;4.80;;;;;;;29.58;40.39;96100.13;5097350;27;20105;-64
2022/05/28 10:56:13;;;;;;;13.07;5.45;;;;;;;29.45;41.94;96104.31;5093082;28;20050;-61
2022/05/28 10:58:58;;;;;;;7.38;4.50;;;;;;;29.43;43.12;96108.22;5093172;28;20032;-63
2022/05/28 11:01:42;;;;;;;10.32;4.50;;;;;;;29.34;41.38;96096.69;5094279;28;20039;-64
2022/05/28 11:04:29;;;;;;;9.07;5.05;;;;;;;29.34;43.57;96097.53;5110185;28;20410;-63
2022/05/28 11:06:55;;;;;;;12.50;5.15;;;;;;;29.39;42.40;96092.44;5113183;28;20067;-63
2022/05/28 11:09:39;;;;;;;14.32;4.72;;;;;;;29.42;41.95;96085.84;5113433;28;20046;-64
2022/05/28 11:12:32;;;;;;;9.77;4.95;;;;;;;29.44;42.88;96085.66;5109924;28;20066;-62
2022/05/28 11:15:00;;;;;;;13.45;4.22;;;;;;;29.47;42.07;96091.47;5093079;28;20077;-63
2022/05/28 11:17:41;;;;;;;9.63;4.60;;;;;;;29.47;42.51;96088.78;5092951;28;20039;-63
2022/05/28 11:20:20;;;;;;;10.10;4.63;;;;;;;29.42;43.25;96088.53;5092934;28;20036;-63
2022/05/28 11:23:06;;;;;;;22.75;5.47;;;;;;;29.36;42.23;96082.03;5098447;28;20488;-61
2022/05/28 11:26:00;;;;;;;13.80;5.05;;;;;;;29.38;42.38;96085.38;5096571;28;20063;-62
2022/05/28 11:28:25;;;;;;;13.05;4.60;;;;;;;29.36;43.00;96087.44;5092960;28;20046;-63
2022/05/28 11:30:56;;;;;;;10.70;4.32;;;;;;;29.34;41.80;96084.09;5092886;28;20478;-63
2022/05/28 11:33:31;;;;;;;;;;;;;;;29.35;41.85;96077.66;5093716;28;20016;-64
2022/05/28 11:36:22;;;;;;;10.43;4.90;;;;;;;29.33;41.89;96082.41;5109829;28;20021;-61
2022/05/28 11:38:59;;;;;;;10.45;4.75;;;;;;;29.16;41.83;96092.56;5115107;27;20354;-63
2022/05/28 11:41:28;;;;;;;8.73;4.32;;;;;;;28.99;43.00;96087.38;5117153;27;20038;-60
2022/05/28 11:44:10;;;;;;;13.10;4.40;;;;;;;28.92;43.64;96094.47;5117089;28;20028;-63
2022/05/28 11:46:45;;;;;;;12.73;4.70;;;;;;;28.71;43.53;96092.56;5116947;28;20028;-61